createdAt,value
2019-03-25T00:00:45.008Z,75.15
2019-03-25T00:01:45.085Z,75.36
2019-03-25T00:02:44.990Z,75.05
2019-03-25T00:03:44.998Z,74.74
2019-03-25T00:04:44.962Z,74.95
2019-03-25T00:05:45.011Z,74.22
2019-03-25T00:06:44.935Z,74.19
2019-03-25T00:07:44.953Z,74.08
2019-03-25T00:08:44.913Z,74.19
2019-03-25T00:09:44.935Z,74.08
2019-03-25T00:10:44.894Z,73.46
2019-03-25T00:11:44.950Z,73.46
2019-03-25T00:12:44.881Z,73.57
2019-03-25T00:13:45.020Z,73.36
2019-03-25T00:14:44.848Z,73.57
2019-03-25T00:15:44.874Z,73.67
2019-03-25T00:16:44.827Z,73.05
2019-03-25T00:17:44.919Z,73.77
2019-03-25T00:18:44.804Z,73.15
2019-03-25T00:19:44.902Z,73.57
2019-03-25T00:20:44.786Z,73.46
2019-03-25T00:21:44.813Z,73.57
2019-03-25T00:22:44.761Z,73.46
2019-03-25T00:23:45.777Z,73.46
2019-03-25T00:24:44.755Z,73.57
2019-03-25T00:25:53.750Z,73.46
2019-03-25T00:26:44.720Z,73.67
2019-03-25T00:27:59.325Z,73.81
2019-03-25T00:28:44.718Z,73.88
2019-03-25T00:29:46.711Z,74.08
2019-03-25T00:30:44.677Z,74.53
2019-03-25T00:31:44.677Z,74.32
2019-03-25T00:32:44.655Z,74.53
2019-03-25T00:33:44.722Z,74.84
2019-03-25T00:34:44.634Z,74.50
2019-03-25T00:35:44.704Z,74.91
2019-03-25T00:36:44.614Z,74.60
2019-03-25T00:37:44.616Z,75.46
2019-03-25T00:38:44.603Z,75.05
2019-03-25T00:39:44.629Z,74.95
2019-03-25T00:40:44.566Z,75.15
2019-03-25T00:41:44.646Z,75.05
2019-03-25T00:42:44.544Z,74.91
2019-03-25T00:43:44.602Z,75.84
2019-03-25T00:44:44.524Z,74.84
2019-03-25T00:45:44.568Z,75.95
2019-03-25T00:46:44.504Z,75.84
2019-03-25T00:47:44.582Z,75.84
2019-03-25T00:48:44.493Z,76.05
2019-03-25T00:49:44.494Z,78.02
2019-03-25T00:50:44.457Z,78.74
2019-03-25T00:51:44.508Z,79.77
2019-03-25T00:52:44.444Z,80.64
2019-03-25T00:53:44.558Z,81.05
2019-03-25T00:54:49.848Z,81.88
2019-03-25T00:55:45.458Z,82.19
2019-03-25T00:56:44.394Z,83.68
2019-03-25T00:57:44.447Z,83.58
2019-03-25T00:58:44.392Z,83.78
2019-03-25T00:59:44.463Z,84.09
2019-03-25T01:00:44.349Z,83.06
2019-03-25T01:01:44.372Z,83.89
2019-03-25T01:02:44.326Z,83.89
2019-03-25T01:03:44.420Z,83.99
2019-03-25T01:04:44.310Z,83.47
2019-03-25T01:05:44.401Z,83.58
2019-03-25T01:06:44.283Z,83.37
2019-03-25T01:07:44.315Z,83.89
2019-03-25T01:08:44.274Z,83.47
2019-03-25T01:09:53.235Z,84.20
2019-03-25T01:10:44.238Z,83.47
2019-03-25T01:11:49.396Z,82.95
2019-03-25T01:12:44.217Z,83.26
2019-03-25T01:13:49.298Z,83.37
2019-03-25T01:14:44.196Z,82.65
2019-03-25T01:15:46.209Z,83.68
2019-03-25T01:16:44.174Z,83.16
2019-03-25T01:17:45.202Z,82.86
2019-03-25T01:18:44.165Z,82.95
2019-03-25T01:19:44.187Z,82.44
2019-03-25T01:20:44.131Z,82.50
2019-03-25T01:21:44.201Z,82.29
2019-03-25T01:22:44.109Z,82.44
2019-03-25T01:23:44.162Z,81.99
2019-03-25T01:24:44.087Z,82.50
2019-03-25T01:25:44.125Z,82.40
2019-03-25T01:26:44.066Z,82.81
2019-03-25T01:27:44.139Z,82.95
2019-03-25T01:28:44.058Z,83.37
2019-03-25T01:29:44.053Z,82.60
2019-03-25T01:30:44.022Z,82.50
2019-03-25T01:31:44.069Z,82.50
2019-03-25T01:32:44.005Z,82.19
2019-03-25T01:33:44.113Z,82.19
2019-03-25T01:34:43.979Z,82.29
2019-03-25T01:35:43.989Z,81.78
2019-03-25T01:36:43.956Z,82.09
2019-03-25T01:37:44.002Z,81.88
2019-03-25T01:38:43.949Z,81.78
2019-03-25T01:39:44.017Z,81.78
2019-03-25T01:40:43.912Z,81.78
2019-03-25T01:41:43.928Z,82.29
2019-03-25T01:42:43.895Z,82.71
2019-03-25T01:43:43.977Z,81.99
2019-03-25T01:44:43.868Z,82.09
2019-03-25T01:45:43.959Z,82.40
2019-03-25T01:46:43.850Z,82.29
2019-03-25T01:47:43.867Z,82.40
2019-03-25T01:48:43.839Z,82.40
2019-03-25T01:49:43.880Z,82.19
2019-03-25T01:50:43.806Z,82.19
2019-03-25T01:51:43.894Z,81.88
2019-03-25T01:52:43.781Z,82.50
2019-03-25T01:53:45.887Z,82.09
2019-03-25T01:54:43.758Z,81.12
2019-03-25T01:55:52.728Z,81.43
2019-03-25T01:56:43.738Z,81.78
2019-03-25T01:57:52.743Z,82.19
2019-03-25T01:58:43.730Z,81.54
2019-03-25T01:59:43.745Z,80.71
2019-03-25T02:00:43.693Z,81.74
2019-03-25T02:01:45.707Z,81.54
2019-03-25T02:02:43.671Z,81.23
2019-03-25T02:03:43.703Z,81.88
2019-03-25T02:04:43.652Z,81.74
2019-03-25T02:05:43.683Z,81.43
2019-03-25T02:06:43.626Z,81.54
2019-03-25T02:07:43.699Z,81.84
2019-03-25T02:08:43.624Z,81.33
2019-03-25T02:09:43.609Z,82.36
2019-03-25T02:10:43.583Z,82.36
2019-03-25T02:11:43.627Z,83.71
2019-03-25T02:12:43.563Z,84.95
2019-03-25T02:13:43.669Z,86.54
2019-03-25T02:14:43.542Z,87.06
2019-03-25T02:15:43.547Z,87.99
2019-03-25T02:16:43.519Z,90.41
2019-03-25T02:17:43.561Z,91.14
2019-03-25T02:18:43.511Z,91.60
2019-03-25T02:19:43.575Z,91.70
2019-03-25T02:20:43.479Z,92.53
2019-03-25T02:21:43.486Z,92.94
2019-03-25T02:22:43.571Z,93.77
2019-03-25T02:23:43.531Z,93.66
2019-03-25T02:24:43.433Z,93.56
2019-03-25T02:25:43.514Z,94.54
2019-03-25T02:26:43.409Z,94.85
2019-03-25T02:27:43.426Z,95.16
2019-03-25T02:28:43.390Z,95.16
2019-03-25T02:29:43.472Z,95.16
2019-03-25T02:30:43.422Z,95.01
2019-03-25T02:31:43.453Z,95.78
2019-03-25T02:32:43.349Z,95.84
2019-03-25T02:33:43.364Z,95.78
2019-03-25T02:34:43.341Z,95.68
2019-03-25T02:35:43.378Z,96.20
2019-03-25T02:36:43.306Z,95.95
2019-03-25T02:37:43.391Z,96.47
2019-03-25T02:38:43.281Z,96.67
2019-03-25T02:39:45.382Z,97.09
2019-03-25T02:40:43.257Z,96.88
2019-03-25T02:41:51.314Z,96.57
2019-03-25T02:42:43.244Z,96.67
2019-03-25T02:43:52.244Z,96.36
2019-03-25T02:44:43.228Z,96.05
2019-03-25T02:45:43.243Z,96.26
2019-03-25T02:46:43.199Z,95.95
2019-03-25T02:47:45.205Z,96.05
2019-03-25T02:48:43.175Z,96.05
2019-03-25T02:49:43.198Z,96.05
2019-03-25T02:50:43.148Z,95.95
2019-03-25T02:51:43.181Z,96.05
2019-03-25T02:52:43.127Z,95.32
2019-03-25T02:53:43.194Z,95.95
2019-03-25T02:54:43.124Z,95.12
2019-03-25T02:55:43.105Z,94.95
2019-03-25T02:56:43.083Z,95.06
2019-03-25T02:57:43.176Z,95.06
2019-03-25T02:58:43.062Z,95.06
2019-03-25T02:59:43.164Z,95.06
2019-03-25T03:00:43.043Z,95.06
2019-03-25T03:01:43.044Z,95.06
2019-03-25T03:02:43.016Z,94.58
2019-03-25T03:03:43.058Z,94.58
2019-03-25T03:04:43.012Z,94.33
2019-03-25T03:05:43.073Z,94.79
2019-03-25T03:06:42.973Z,94.79
2019-03-25T03:07:43.095Z,94.58
2019-03-25T03:08:42.951Z,95.10
2019-03-25T03:09:43.029Z,94.89
2019-03-25T03:10:42.938Z,95.10
2019-03-25T03:11:43.013Z,95.20
2019-03-25T03:12:42.909Z,95.10
2019-03-25T03:13:42.924Z,95.20
2019-03-25T03:14:42.898Z,95.31
2019-03-25T03:15:42.941Z,94.73
2019-03-25T03:16:42.868Z,94.73
2019-03-25T03:17:42.952Z,95.46
2019-03-25T03:18:42.843Z,95.56
2019-03-25T03:19:42.891Z,95.25
2019-03-25T03:20:42.915Z,95.67
2019-03-25T03:21:42.878Z,96.19
2019-03-25T03:22:42.799Z,95.98
2019-03-25T03:23:42.888Z,96.23
2019-03-25T03:24:42.791Z,96.02
2019-03-25T03:25:56.502Z,96.02
2019-03-25T03:26:43.757Z,96.23
2019-03-25T03:27:49.776Z,96.44
2019-03-25T03:28:42.742Z,95.61
2019-03-25T03:29:42.760Z,96.02
2019-03-25T03:30:42.724Z,96.02
2019-03-25T03:31:42.739Z,96.23
2019-03-25T03:32:42.693Z,96.29
2019-03-25T03:33:44.700Z,96.54
2019-03-25T03:34:42.670Z,96.12
2019-03-25T03:35:46.226Z,96.12
2019-03-25T03:36:42.645Z,95.71
2019-03-25T03:37:42.685Z,96.33
2019-03-25T03:38:42.628Z,96.33
2019-03-25T03:39:42.693Z,96.02
2019-03-25T03:40:42.615Z,96.02
2019-03-25T03:41:42.608Z,96.12
2019-03-25T03:42:42.588Z,96.12
2019-03-25T03:43:42.617Z,96.06
2019-03-25T03:44:42.559Z,96.37
2019-03-25T03:45:42.660Z,96.48
2019-03-25T03:46:42.535Z,96.17
2019-03-25T03:47:42.553Z,96.79
2019-03-25T03:48:42.515Z,96.73
2019-03-25T03:49:42.556Z,96.58
2019-03-25T03:50:42.505Z,96.89
2019-03-25T03:51:42.603Z,96.89
2019-03-25T03:52:42.474Z,97.10
2019-03-25T03:53:42.480Z,96.48
2019-03-25T03:54:42.455Z,96.58
2019-03-25T03:55:42.522Z,96.89
2019-03-25T03:56:42.425Z,96.27
2019-03-25T03:57:42.510Z,96.23
2019-03-25T03:58:42.405Z,95.92
2019-03-25T03:59:42.423Z,95.92
2019-03-25T04:00:42.396Z,96.12
2019-03-25T04:01:42.433Z,95.92
2019-03-25T04:02:42.365Z,96.12
2019-03-25T04:03:42.447Z,96.12
2019-03-25T04:04:42.353Z,96.02
2019-03-25T04:05:42.395Z,96.17
2019-03-25T04:06:42.319Z,96.23
2019-03-25T04:07:42.373Z,96.17
2019-03-25T04:08:42.301Z,96.37
2019-03-25T04:09:42.449Z,96.11
2019-03-25T04:10:42.289Z,96.27
2019-03-25T04:11:42.297Z,96.31
2019-03-25T04:12:42.254Z,95.90
2019-03-25T04:14:42.232Z,96.21
2019-03-25T04:15:42.258Z,96.21
2019-03-25T04:16:42.212Z,96.52
2019-03-25T04:17:42.242Z,96.36
2019-03-25T04:18:42.269Z,96.21
2019-03-25T04:19:44.196Z,96.42
2019-03-25T04:20:42.188Z,96.47
2019-03-25T04:21:43.184Z,96.36
2019-03-25T04:22:42.144Z,96.78
2019-03-25T04:23:42.173Z,96.67
2019-03-25T04:24:42.129Z,96.57
2019-03-25T04:25:42.220Z,96.78
2019-03-25T04:26:42.104Z,96.67
2019-03-25T04:27:42.202Z,96.88
2019-03-25T04:28:42.078Z,96.88
2019-03-25T04:29:42.115Z,96.04
2019-03-25T04:30:42.072Z,96.98
2019-03-25T04:31:42.131Z,96.88
2019-03-25T04:32:42.033Z,96.67
2019-03-25T04:33:42.042Z,96.88
2019-03-25T04:34:42.013Z,96.78
2019-03-25T04:35:42.082Z,96.67
2019-03-25T04:36:41.991Z,96.82
2019-03-25T04:37:42.066Z,96.57
2019-03-25T04:38:41.968Z,96.67
2019-03-25T04:39:41.979Z,96.67
2019-03-25T04:40:42.001Z,96.82
2019-03-25T04:41:41.991Z,96.57
2019-03-25T04:42:41.926Z,96.57
2019-03-25T04:43:42.003Z,96.78
2019-03-25T04:44:41.902Z,96.78
2019-03-25T04:45:41.945Z,96.82
2019-03-25T04:46:41.881Z,96.82
2019-03-25T04:47:41.928Z,96.92
2019-03-25T04:48:41.863Z,96.72
2019-03-25T04:49:41.944Z,97.03
2019-03-25T04:50:41.855Z,97.24
2019-03-25T04:51:41.853Z,96.92
2019-03-25T04:52:41.821Z,97.65
2019-03-25T04:53:41.869Z,97.24
2019-03-25T04:54:41.795Z,97.24
2019-03-25T04:55:41.803Z,96.92
2019-03-25T04:56:41.771Z,97.03
2019-03-25T04:57:41.793Z,96.09
2019-03-25T04:58:41.752Z,96.41
2019-03-25T04:59:43.855Z,96.30
2019-03-25T05:00:41.741Z,96.15
2019-03-25T05:01:48.851Z,96.04
2019-03-25T05:02:41.710Z,95.53
2019-03-25T05:03:41.731Z,95.47
2019-03-25T05:04:41.686Z,95.42
2019-03-25T05:05:43.723Z,95.63
2019-03-25T05:06:41.669Z,95.42
2019-03-25T05:07:42.681Z,95.01
2019-03-25T05:08:41.640Z,95.32
2019-03-25T05:09:41.671Z,95.53
2019-03-25T05:10:41.632Z,95.11
2019-03-25T05:11:41.683Z,95.32
2019-03-25T05:12:41.599Z,95.32
2019-03-25T05:13:41.697Z,95.42
2019-03-25T05:14:41.577Z,95.32
2019-03-25T05:15:41.640Z,95.32
2019-03-25T05:16:41.553Z,95.53
2019-03-25T05:17:41.623Z,94.86
2019-03-25T05:18:41.536Z,95.38
2019-03-25T05:19:41.533Z,95.38
2019-03-25T05:20:41.524Z,94.76
2019-03-25T05:21:41.554Z,95.07
2019-03-25T05:22:41.503Z,94.96
2019-03-25T05:23:41.570Z,95.28
2019-03-25T05:24:41.468Z,94.96
2019-03-25T05:25:41.504Z,95.17
2019-03-25T05:26:50.481Z,95.17
2019-03-25T05:27:42.432Z,95.17
2019-03-25T05:28:41.493Z,95.07
2019-03-25T05:29:41.412Z,94.86
2019-03-25T05:30:41.506Z,94.76
2019-03-25T05:31:41.403Z,94.65
2019-03-25T05:32:41.418Z,94.65
2019-03-25T05:33:41.370Z,94.65
2019-03-25T05:34:41.437Z,94.65
2019-03-25T05:35:41.347Z,94.34
2019-03-25T05:36:41.376Z,94.76
2019-03-25T05:37:41.325Z,94.45
2019-03-25T05:38:41.357Z,94.34
2019-03-25T05:39:41.300Z,94.24
2019-03-25T05:40:41.383Z,94.24
2019-03-25T05:41:41.295Z,93.93
2019-03-25T05:42:41.282Z,94.03
2019-03-25T05:43:41.257Z,94.03
2019-03-25T05:44:42.324Z,94.45
2019-03-25T05:45:41.245Z,94.13
2019-03-25T05:46:42.262Z,93.78
2019-03-25T05:47:41.221Z,93.88
2019-03-25T05:48:41.239Z,93.78
2019-03-25T05:49:41.191Z,93.99
2019-03-25T05:50:48.826Z,93.47
2019-03-25T05:51:41.188Z,93.99
2019-03-25T05:52:42.189Z,94.05
2019-03-25T05:53:41.150Z,93.63
2019-03-25T05:54:41.163Z,92.59
2019-03-25T05:55:41.126Z,92.69
2019-03-25T05:56:41.204Z,92.90
2019-03-25T05:57:41.103Z,92.69
2019-03-25T05:58:41.192Z,92.03
2019-03-25T05:59:41.084Z,92.45
2019-03-25T06:00:41.106Z,91.78
2019-03-25T06:01:41.073Z,91.68
2019-03-25T06:02:41.120Z,91.78
2019-03-25T06:03:41.045Z,92.45
2019-03-25T06:04:41.130Z,92.30
2019-03-25T06:05:41.016Z,92.03
2019-03-25T06:06:41.073Z,92.30
2019-03-25T06:07:40.993Z,91.78
2019-03-25T06:08:41.068Z,91.68
2019-03-25T06:09:40.975Z,92.10
2019-03-25T06:10:41.069Z,92.82
2019-03-25T06:11:40.963Z,92.76
2019-03-25T06:12:42.491Z,91.78
2019-03-25T06:13:40.931Z,92.72
2019-03-25T06:14:40.998Z,92.82
2019-03-25T06:15:40.907Z,92.82
2019-03-25T06:16:40.932Z,92.93
2019-03-25T06:17:40.884Z,91.93
2019-03-25T06:18:40.919Z,91.58
2019-03-25T06:19:40.864Z,91.47
2019-03-25T06:20:40.938Z,91.37
2019-03-25T06:21:40.851Z,91.37
2019-03-25T06:22:40.946Z,91.06
2019-03-25T06:23:40.822Z,90.54
2019-03-25T06:24:40.860Z,90.75
2019-03-25T06:25:40.797Z,91.37
2019-03-25T06:26:40.906Z,91.16
2019-03-25T06:27:40.781Z,90.60
2019-03-25T06:28:40.783Z,90.29
2019-03-25T06:29:40.760Z,90.70
2019-03-25T06:30:42.844Z,90.91
2019-03-25T06:31:40.746Z,90.45
2019-03-25T06:32:48.811Z,90.35
2019-03-25T06:33:40.714Z,90.45
2019-03-25T06:34:40.728Z,89.31
2019-03-25T06:35:40.691Z,89.42
2019-03-25T06:36:40.760Z,89.62
2019-03-25T06:37:40.672Z,89.38
2019-03-25T06:38:42.698Z,89.28
2019-03-25T06:39:40.646Z,89.17
2019-03-25T06:40:40.663Z,88.92
2019-03-25T06:41:40.637Z,88.51
2019-03-25T06:42:40.674Z,88.09
2019-03-25T06:43:40.603Z,88.61
2019-03-25T06:44:40.706Z,88.20
2019-03-25T06:45:40.582Z,88.09
2019-03-25T06:46:40.646Z,87.88
2019-03-25T06:47:40.562Z,88.09
2019-03-25T06:48:40.614Z,88.20
2019-03-25T06:49:40.537Z,87.99
2019-03-25T06:50:40.629Z,88.20
2019-03-25T06:51:40.536Z,87.12
2019-03-25T06:52:40.542Z,86.71
2019-03-25T06:53:40.496Z,86.81
2019-03-25T06:54:40.550Z,87.47
2019-03-25T06:55:40.470Z,87.99
2019-03-25T06:56:40.506Z,88.09
2019-03-25T06:57:40.453Z,87.99
2019-03-25T06:58:40.481Z,88.20
2019-03-25T06:59:40.433Z,88.26
2019-03-25T07:00:40.499Z,87.88
2019-03-25T07:01:40.418Z,88.03
2019-03-25T07:02:40.512Z,89.00
2019-03-25T07:03:40.383Z,90.25
2019-03-25T07:04:40.423Z,90.45
2019-03-25T07:05:40.360Z,91.85
2019-03-25T07:06:40.469Z,92.05
2019-03-25T07:07:40.347Z,92.93
2019-03-25T07:08:40.450Z,93.13
2019-03-25T07:09:40.319Z,93.85
2019-03-25T07:10:40.357Z,94.06
2019-03-25T07:11:40.326Z,94.89
2019-03-25T07:12:40.389Z,95.20
2019-03-25T07:13:40.276Z,96.09
2019-03-25T07:14:40.292Z,95.26
2019-03-25T07:15:40.249Z,94.54
2019-03-25T07:16:42.358Z,95.06
2019-03-25T07:17:40.246Z,94.64
2019-03-25T07:18:40.317Z,94.95
2019-03-25T07:19:40.212Z,94.68
2019-03-25T07:20:40.231Z,95.20
2019-03-25T07:21:40.184Z,95.31
2019-03-25T07:22:40.266Z,95.10
2019-03-25T07:23:40.167Z,96.03
2019-03-25T07:24:42.196Z,95.72
2019-03-25T07:25:40.162Z,96.24
2019-03-25T07:26:40.185Z,96.34
2019-03-25T07:27:40.145Z,96.70
2019-03-25T07:28:40.174Z,96.55
2019-03-25T07:29:40.096Z,96.60
2019-03-25T07:30:40.201Z,96.55
2019-03-25T07:31:40.073Z,96.70
2019-03-25T07:32:40.126Z,96.45
2019-03-25T07:33:40.055Z,96.45
2019-03-25T07:34:41.288Z,96.97
2019-03-25T07:35:40.033Z,96.45
2019-03-25T07:36:40.126Z,97.49
2019-03-25T07:37:40.027Z,96.55
2019-03-25T07:38:40.036Z,96.45
2019-03-25T07:39:39.988Z,96.66
2019-03-25T07:40:40.050Z,97.07
2019-03-25T07:41:39.966Z,97.59
2019-03-25T07:42:39.990Z,97.34
2019-03-25T07:43:39.951Z,97.44
2019-03-25T07:44:39.975Z,96.67
2019-03-25T07:45:39.920Z,96.36
2019-03-25T07:46:39.984Z,95.95
2019-03-25T07:47:39.910Z,95.95
2019-03-25T07:48:40.002Z,96.09
2019-03-25T07:49:39.877Z,95.64
2019-03-25T07:50:39.911Z,94.81
2019-03-25T07:51:39.853Z,94.60
2019-03-25T07:52:39.977Z,95.07
2019-03-25T07:53:39.834Z,94.47
2019-03-25T07:54:39.832Z,93.35
2019-03-25T07:55:39.814Z,91.49
2019-03-25T07:56:39.808Z,91.28
2019-03-25T07:57:48.054Z,92.00
2019-03-25T07:58:40.793Z,91.42
2019-03-25T07:59:39.772Z,92.77
2019-03-25T08:00:39.766Z,92.50
2019-03-25T08:01:39.780Z,93.02
2019-03-25T08:02:39.748Z,93.49
2019-03-25T08:03:39.731Z,92.42
2019-03-25T08:04:39.742Z,91.71
2019-03-25T08:05:39.710Z,91.56
2019-03-25T08:06:39.694Z,91.88
2019-03-25T08:07:42.614Z,91.20
2019-03-25T08:08:41.249Z,91.20
2019-03-25T08:09:39.671Z,91.13
2019-03-25T08:10:56.250Z,91.13
2019-03-25T08:11:39.653Z,91.38
2019-03-25T08:12:39.665Z,91.28
2019-03-25T08:13:39.615Z,91.80
2019-03-25T08:14:39.608Z,92.83
2019-03-25T08:15:39.632Z,92.27
2019-03-25T08:16:39.590Z,92.21
2019-03-25T08:17:39.595Z,92.13
2019-03-25T08:18:39.563Z,91.92
2019-03-25T08:19:39.550Z,91.16
2019-03-25T08:20:39.547Z,90.49
2019-03-25T08:21:39.524Z,89.62
2019-03-25T08:22:39.538Z,89.32
2019-03-25T08:23:39.504Z,87.73
2019-03-25T08:24:39.498Z,86.84
2019-03-25T08:25:39.481Z,86.49
2019-03-25T08:26:39.475Z,86.29
2019-03-25T08:27:39.476Z,86.63
2019-03-25T08:28:39.464Z,86.84
2019-03-25T08:29:39.442Z,87.87
2019-03-25T08:30:39.433Z,87.66
2019-03-25T08:31:39.416Z,87.92
2019-03-25T08:32:39.425Z,88.26
2019-03-25T08:33:39.405Z,88.68
2019-03-25T08:34:39.394Z,89.95
2019-03-25T08:35:39.374Z,90.16
2019-03-25T08:36:39.369Z,89.92
2019-03-25T08:37:39.369Z,89.09
2019-03-25T08:38:39.349Z,88.84
2019-03-25T08:39:39.332Z,88.68
2019-03-25T08:40:39.331Z,87.99
2019-03-25T08:41:39.315Z,89.23
2019-03-25T08:42:39.315Z,89.65
2019-03-25T08:43:39.297Z,90.58
2019-03-25T08:44:39.282Z,90.10
2019-03-25T08:45:39.269Z,90.56
2019-03-25T08:46:39.266Z,90.87
2019-03-25T08:47:39.348Z,91.32
2019-03-25T08:48:39.243Z,91.42
2019-03-25T08:49:39.231Z,92.46
2019-03-25T08:50:39.217Z,92.77
2019-03-25T08:51:39.209Z,93.70
2019-03-25T08:52:39.192Z,91.99
2019-03-25T08:53:39.190Z,92.46
2019-03-25T08:54:39.171Z,92.87
2019-03-25T08:55:39.156Z,92.57
2019-03-25T08:56:39.157Z,92.15
2019-03-25T08:57:39.134Z,91.42
2019-03-25T08:58:39.143Z,91.53
2019-03-25T08:59:39.109Z,91.53
2019-03-25T09:00:39.103Z,91.07
2019-03-25T09:01:39.100Z,91.38
2019-03-25T09:02:39.085Z,90.52
2019-03-25T09:03:39.079Z,89.34
2019-03-25T09:04:39.069Z,88.95
2019-03-25T09:05:39.046Z,87.73
2019-03-25T09:06:39.037Z,85.03
2019-03-25T09:07:39.021Z,81.90
2019-03-25T09:08:39.028Z,81.00
2019-03-25T09:09:39.000Z,79.04
2019-03-25T09:10:38.995Z,78.42
2019-03-25T09:11:38.978Z,76.47
2019-03-25T09:12:38.973Z,77.06
2019-03-25T09:13:38.970Z,78.74
2019-03-25T09:14:38.949Z,78.46
2019-03-25T09:15:38.933Z,80.90
2019-03-25T09:16:38.926Z,80.83
2019-03-25T09:17:38.917Z,81.37
2019-03-25T09:18:38.918Z,78.67
2019-03-25T09:19:38.915Z,75.76
2019-03-25T09:20:38.887Z,76.65
2019-03-25T09:21:38.864Z,76.43
2019-03-25T09:22:38.857Z,75.48
2019-03-25T09:23:38.855Z,76.62
2019-03-25T09:24:38.836Z,79.69
2019-03-25T09:25:38.822Z,78.74
2019-03-25T09:26:38.823Z,77.51
2019-03-25T09:27:38.799Z,78.36
2019-03-25T09:28:38.806Z,78.78
2019-03-25T09:29:38.776Z,82.56
2019-03-25T09:30:38.770Z,83.42
2019-03-25T09:31:38.763Z,86.04
2019-03-25T09:32:38.746Z,86.24
2019-03-25T09:33:38.744Z,86.15
2019-03-25T09:34:38.724Z,85.49
2019-03-25T09:35:38.709Z,83.94
2019-03-25T09:36:38.701Z,83.28
2019-03-25T09:37:38.695Z,81.76
2019-03-25T09:38:38.711Z,80.63
2019-03-25T09:39:38.665Z,77.98
2019-03-25T09:40:38.660Z,77.29
2019-03-25T09:41:38.646Z,77.50
2019-03-25T09:42:38.642Z,76.75
2019-03-25T09:43:38.634Z,78.74
2019-03-25T09:44:38.616Z,75.76
2019-03-25T09:45:38.600Z,76.48
2019-03-25T09:46:38.591Z,75.21
2019-03-25T09:47:38.575Z,74.26
2019-03-25T09:48:38.583Z,73.16
2019-03-25T09:49:38.599Z,71.94
2019-03-25T09:50:38.551Z,72.55
2019-03-25T09:51:38.534Z,76.20
2019-03-25T09:52:39.051Z,76.51
2019-03-25T09:53:38.525Z,74.63
2019-03-25T09:54:38.503Z,73.71
2019-03-25T09:55:38.487Z,72.38
2019-03-25T09:56:38.490Z,69.93
2019-03-25T09:57:38.471Z,69.27
2019-03-25T09:58:38.472Z,72.00
2019-03-25T09:59:38.443Z,73.10
2019-03-25T10:00:38.448Z,75.11
2019-03-25T10:01:38.417Z,77.71
2019-03-25T10:02:38.415Z,78.57
2019-03-25T10:03:38.409Z,78.33
2019-03-25T10:04:38.389Z,77.23
2019-03-25T10:05:38.375Z,77.78
2019-03-25T10:06:38.373Z,79.70
2019-03-25T10:07:38.352Z,80.53
2019-03-25T10:08:38.365Z,84.93
2019-03-25T10:09:38.335Z,85.31
2019-03-25T10:10:38.323Z,87.73
2019-03-25T10:11:38.322Z,86.43
2019-03-25T10:12:38.301Z,85.47
2019-03-25T10:13:38.287Z,81.27
2019-03-25T10:14:38.304Z,78.42
2019-03-25T10:15:38.285Z,76.03
2019-03-25T10:16:38.295Z,73.98
2019-03-25T10:17:38.265Z,73.30
2019-03-25T10:18:39.240Z,72.52
2019-03-25T10:19:39.200Z,71.19
2019-03-25T10:20:39.215Z,74.94
2019-03-25T10:21:38.242Z,78.19
2019-03-25T10:22:39.191Z,80.35
2019-03-25T10:23:38.175Z,82.39
2019-03-25T10:24:38.274Z,83.86
2019-03-25T10:25:38.152Z,84.00
2019-03-25T10:26:38.265Z,86.00
2019-03-25T10:27:38.130Z,84.80
2019-03-25T10:28:48.013Z,84.59
2019-03-25T10:29:39.119Z,84.53
2019-03-25T10:30:38.158Z,84.53
2019-03-25T10:31:38.088Z,85.67
2019-03-25T10:32:38.160Z,83.29
2019-03-25T10:33:38.066Z,84.53
2019-03-25T10:34:38.107Z,83.53
2019-03-25T10:35:38.047Z,81.21
2019-03-25T10:36:38.085Z,79.25
2019-03-25T10:37:38.023Z,76.68
2019-03-25T10:38:38.019Z,75.15
2019-03-25T10:39:38.009Z,75.11
2019-03-25T10:40:38.017Z,74.60
2019-03-25T10:41:38.539Z,72.21
2019-03-25T10:42:38.024Z,73.06
2019-03-25T10:43:37.955Z,70.44
2019-03-25T10:44:38.078Z,69.79
2019-03-25T10:45:38.075Z,66.70
2019-03-25T10:46:37.947Z,66.80
2019-03-25T10:47:37.908Z,66.88
2019-03-25T10:48:37.969Z,65.83
2019-03-25T10:49:37.901Z,65.89
2019-03-25T10:50:37.980Z,65.11
2019-03-25T10:51:37.873Z,67.68
2019-03-25T10:52:37.889Z,66.97
2019-03-25T10:53:37.841Z,67.85
2019-03-25T10:54:37.984Z,64.20
2019-03-25T10:55:37.821Z,63.99
2019-03-25T10:56:37.913Z,64.75
2019-03-25T10:57:37.805Z,61.05
2019-03-25T10:58:37.838Z,64.48
2019-03-25T10:59:37.786Z,60.86
2019-03-25T11:00:37.844Z,60.56
2019-03-25T11:01:37.753Z,60.89
2019-03-25T11:02:37.857Z,58.63
2019-03-25T11:03:37.731Z,60.50
2019-03-25T11:04:37.791Z,58.91
2019-03-25T11:05:37.712Z,58.00
2019-03-25T11:06:37.779Z,58.99
2019-03-25T11:07:37.830Z,58.33
2019-03-25T11:08:37.691Z,58.59
2019-03-25T11:09:37.733Z,59.35
2019-03-25T11:10:37.700Z,59.01
2019-03-25T11:11:37.638Z,59.07
2019-03-25T11:12:37.714Z,60.96
2019-03-25T11:13:37.615Z,63.40
2019-03-25T11:14:37.654Z,65.50
2019-03-25T11:15:37.594Z,65.08
2019-03-25T11:16:37.638Z,65.96
2019-03-25T11:17:37.573Z,68.35
2019-03-25T11:18:37.652Z,71.35
2019-03-25T11:19:37.558Z,72.92
2019-03-25T11:20:37.564Z,73.71
2019-03-25T11:21:37.527Z,74.12
2019-03-25T11:22:37.588Z,77.00
2019-03-25T11:23:37.505Z,81.34
2019-03-25T11:24:37.625Z,84.61
2019-03-25T11:25:37.482Z,85.72
2019-03-25T11:26:37.510Z,88.12
2019-03-25T11:27:37.464Z,89.56
2019-03-25T11:28:37.517Z,91.16
2019-03-25T11:29:37.450Z,91.67
2019-03-25T11:30:37.531Z,92.40
2019-03-25T11:31:37.425Z,91.36
2019-03-25T11:32:37.445Z,90.84
2019-03-25T11:33:37.396Z,90.93
2019-03-25T11:34:37.484Z,86.29
2019-03-25T11:35:37.381Z,82.96
2019-03-25T11:36:37.468Z,78.43
2019-03-25T11:37:37.370Z,75.45
2019-03-25T11:38:37.380Z,76.57
2019-03-25T11:39:37.332Z,73.85
2019-03-25T11:40:37.425Z,72.34
2019-03-25T11:41:37.311Z,72.48
2019-03-25T11:42:37.530Z,68.37
2019-03-25T11:43:37.285Z,68.95
2019-03-25T11:44:37.318Z,68.88
2019-03-25T11:45:37.274Z,70.82
2019-03-25T11:46:37.470Z,66.13
2019-03-25T11:47:37.315Z,67.69
2019-03-25T11:48:37.242Z,67.38
2019-03-25T11:49:37.216Z,66.94
2019-03-25T11:50:37.472Z,66.47
2019-03-25T11:51:37.192Z,65.09
2019-03-25T11:52:37.271Z,63.59
2019-03-25T11:53:37.173Z,63.73
2019-03-25T11:54:37.185Z,64.61
2019-03-25T11:55:37.162Z,64.06
2019-03-25T11:56:37.199Z,64.72
2019-03-25T11:57:37.127Z,62.68
2019-03-25T11:58:37.211Z,62.58
2019-03-25T11:59:37.103Z,61.76
2019-03-25T12:00:37.153Z,63.86
2019-03-25T12:01:37.083Z,62.46
2019-03-25T12:02:37.134Z,63.04
2019-03-25T12:03:37.060Z,65.01
2019-03-25T12:04:37.150Z,64.78
2019-03-25T12:05:37.054Z,65.39
2019-03-25T12:06:37.064Z,63.61
2019-03-25T12:07:37.022Z,65.92
2019-03-25T12:08:37.075Z,66.62
2019-03-25T12:09:36.994Z,68.16
2019-03-25T12:10:37.016Z,67.75
2019-03-25T12:11:36.975Z,67.60
2019-03-25T12:12:36.997Z,68.59
2019-03-25T12:13:36.953Z,70.60
2019-03-25T12:14:37.011Z,70.32
2019-03-25T12:15:36.943Z,71.90
2019-03-25T12:16:37.023Z,72.14
2019-03-25T12:17:36.917Z,72.44
2019-03-25T12:18:36.940Z,71.93
2019-03-25T12:19:36.883Z,72.99
2019-03-25T12:20:36.980Z,72.89
2019-03-25T12:21:36.862Z,74.02
2019-03-25T12:22:36.963Z,75.04
2019-03-25T12:23:36.843Z,74.53
2019-03-25T12:24:36.875Z,73.81
2019-03-25T12:25:36.830Z,72.78
2019-03-25T12:26:36.891Z,69.20
2019-03-25T12:27:36.801Z,67.07
2019-03-25T12:28:36.800Z,63.03
2019-03-25T12:29:36.795Z,62.08
2019-03-25T12:30:38.790Z,62.40
2019-03-25T12:31:36.747Z,64.93
2019-03-25T12:32:38.758Z,61.93
2019-03-25T12:33:38.629Z,59.66
2019-03-25T12:34:36.738Z,58.86
2019-03-25T12:35:36.720Z,57.66
2019-03-25T12:36:36.758Z,57.23
2019-03-25T12:37:36.683Z,56.67
2019-03-25T12:38:37.692Z,56.70
2019-03-25T12:39:36.662Z,57.38
2019-03-25T12:40:36.714Z,57.34
2019-03-25T12:41:36.636Z,59.28
2019-03-25T12:42:36.697Z,60.87
2019-03-25T12:43:36.612Z,63.25
2019-03-25T12:44:36.703Z,67.07
2019-03-25T12:45:36.620Z,68.46
2019-03-25T12:46:36.626Z,69.75
2019-03-25T12:47:36.570Z,73.64
2019-03-25T12:48:36.632Z,76.79
2019-03-25T12:49:36.551Z,78.16
2019-03-25T12:50:36.579Z,81.07
2019-03-25T12:51:36.534Z,80.12
2019-03-25T12:52:36.555Z,80.98
2019-03-25T12:53:36.503Z,79.85